sensor_id;sensor_type;location;lat;lon;timestamp;P1;durP1;ratioP1;P2;durP2;ratioP2
62707;SDS011;48769;51.624;5.886;2023-04-03T00:01:30;16.00;;;10.05;;
62707;SDS011;48769;51.624;5.886;2023-04-03T00:03:56;13.20;;;10.15;;
62707;SDS011;48769;51.624;5.886;2023-04-03T00:06:22;13.52;;;8.88;;
62707;SDS011;48769;51.624;5.886;2023-04-03T00:08:48;15.20;;;10.02;;
62707;SDS011;48769;51.624;5.886;2023-04-03T00:11:17;14.45;;;10.93;;
62707;SDS011;48769;51.624;5.886;2023-04-03T00:13:43;16.42;;;10.75;;
62707;SDS011;48769;51.624;5.886;2023-04-03T00:16:09;13.57;;;10.18;;
62707;SDS011;48769;51.624;5.886;2023-04-03T00:18:36;18.63;;;10.35;;
62707;SDS011;48769;51.624;5.886;2023-04-03T00:21:02;14.18;;;10.27;;
62707;SDS011;48769;51.624;5.886;2023-04-03T00:23:27;11.77;;;9.60;;
62707;SDS011;48769;51.624;5.886;2023-04-03T00:25:53;18.48;;;10.45;;
62707;SDS011;48769;51.624;5.886;2023-04-03T00:28:21;15.10;;;9.80;;
62707;SDS011;48769;51.624;5.886;2023-04-03T00:30:48;15.23;;;10.50;;
62707;SDS011;48769;51.624;5.886;2023-04-03T00:33:15;18.42;;;10.05;;
62707;SDS011;48769;51.624;5.886;2023-04-03T00:35:40;13.30;;;9.93;;
62707;SDS011;48769;51.624;5.886;2023-04-03T00:38:06;16.55;;;10.60;;
62707;SDS011;48769;51.624;5.886;2023-04-03T00:40:39;18.55;;;11.32;;
62707;SDS011;48769;51.624;5.886;2023-04-03T00:43:18;14.93;;;9.70;;
62707;SDS011;48769;51.624;5.886;2023-04-03T00:45:47;16.73;;;9.88;;
62707;SDS011;48769;51.624;5.886;2023-04-03T00:48:18;17.05;;;9.40;;
62707;SDS011;48769;51.624;5.886;2023-04-03T00:50:47;12.13;;;8.85;;
62707;SDS011;48769;51.624;5.886;2023-04-03T00:53:17;11.77;;;8.55;;
62707;SDS011;48769;51.624;5.886;2023-04-03T00:55:47;12.20;;;8.30;;
62707;SDS011;48769;51.624;5.886;2023-04-03T00:58:14;14.60;;;8.70;;
62707;SDS011;48769;51.624;5.886;2023-04-03T01:00:44;13.02;;;7.47;;
62707;SDS011;48769;51.624;5.886;2023-04-03T01:03:15;15.82;;;7.60;;
62707;SDS011;48769;51.624;5.886;2023-04-03T01:05:40;11.85;;;7.15;;
62707;SDS011;48769;51.624;5.886;2023-04-03T01:08:06;11.63;;;6.68;;
62707;SDS011;48769;51.624;5.886;2023-04-03T01:10:31;10.27;;;7.55;;
62707;SDS011;48769;51.624;5.886;2023-04-03T01:12:56;14.15;;;6.85;;
62707;SDS011;48769;51.624;5.886;2023-04-03T01:15:25;12.93;;;7.22;;
62707;SDS011;48769;51.624;5.886;2023-04-03T01:17:52;11.98;;;6.82;;
62707;SDS011;48769;51.624;5.886;2023-04-03T01:25:42;12.90;;;6.45;;
62707;SDS011;48769;51.624;5.886;2023-04-03T01:28:12;11.40;;;6.07;;
62707;SDS011;48769;51.624;5.886;2023-04-03T01:33:31;13.70;;;6.25;;
62707;SDS011;48769;51.624;5.886;2023-04-03T01:35:56;11.07;;;6.18;;
62707;SDS011;48769;51.624;5.886;2023-04-03T01:38:24;10.07;;;6.13;;
62707;SDS011;48769;51.624;5.886;2023-04-03T01:40:50;10.32;;;5.75;;
62707;SDS011;48769;51.624;5.886;2023-04-03T01:43:15;7.07;;;5.47;;
62707;SDS011;48769;51.624;5.886;2023-04-03T01:45:44;10.60;;;6.10;;
62707;SDS011;48769;51.624;5.886;2023-04-03T01:48:11;7.18;;;5.65;;
62707;SDS011;48769;51.624;5.886;2023-04-03T01:50:39;8.27;;;5.55;;
62707;SDS011;48769;51.624;5.886;2023-04-03T01:53:05;10.82;;;5.25;;
62707;SDS011;48769;51.624;5.886;2023-04-03T01:55:30;8.73;;;5.13;;
62707;SDS011;48769;51.624;5.886;2023-04-03T01:57:55;10.10;;;5.57;;
62707;SDS011;48769;51.624;5.886;2023-04-03T02:00:21;9.35;;;5.40;;
62707;SDS011;48769;51.624;5.886;2023-04-03T02:02:46;8.65;;;4.78;;
62707;SDS011;48769;51.624;5.886;2023-04-03T02:05:11;6.93;;;5.25;;
62707;SDS011;48769;51.624;5.886;2023-04-03T02:07:36;12.30;;;5.25;;
62707;SDS011;48769;51.624;5.886;2023-04-03T02:10:02;8.50;;;5.35;;
62707;SDS011;48769;51.624;5.886;2023-04-03T02:12:27;11.77;;;5.68;;
62707;SDS011;48769;51.624;5.886;2023-04-03T02:14:53;8.18;;;5.00;;
62707;SDS011;48769;51.624;5.886;2023-04-03T02:17:18;9.77;;;5.00;;
62707;SDS011;48769;51.624;5.886;2023-04-03T02:19:43;6.63;;;4.82;;
62707;SDS011;48769;51.624;5.886;2023-04-03T02:22:09;11.27;;;5.25;;
62707;SDS011;48769;51.624;5.886;2023-04-03T02:24:34;11.70;;;5.03;;
62707;SDS011;48769;51.624;5.886;2023-04-03T02:27:00;7.65;;;4.88;;
62707;SDS011;48769;51.624;5.886;2023-04-03T02:29:25;11.88;;;5.15;;
62707;SDS011;48769;51.624;5.886;2023-04-03T02:31:51;8.85;;;4.82;;
62707;SDS011;48769;51.624;5.886;2023-04-03T02:34:16;8.57;;;4.90;;
62707;SDS011;48769;51.624;5.886;2023-04-03T02:36:43;10.40;;;4.70;;
62707;SDS011;48769;51.624;5.886;2023-04-03T02:39:08;5.93;;;3.78;;
62707;SDS011;48769;51.624;5.886;2023-04-03T02:41:34;10.65;;;4.10;;
62707;SDS011;48769;51.624;5.886;2023-04-03T02:44:02;7.28;;;4.25;;
62707;SDS011;48769;51.624;5.886;2023-04-03T02:46:29;10.43;;;4.07;;
62707;SDS011;48769;51.624;5.886;2023-04-03T02:48:54;8.98;;;4.88;;
62707;SDS011;48769;51.624;5.886;2023-04-03T02:51:20;9.18;;;4.47;;
62707;SDS011;48769;51.624;5.886;2023-04-03T02:53:45;6.78;;;3.78;;
62707;SDS011;48769;51.624;5.886;2023-04-03T02:56:11;6.72;;;3.80;;
62707;SDS011;48769;51.624;5.886;2023-04-03T02:58:36;8.63;;;4.05;;
62707;SDS011;48769;51.624;5.886;2023-04-03T03:01:02;9.02;;;3.90;;
62707;SDS011;48769;51.624;5.886;2023-04-03T03:03:28;8.43;;;4.00;;
62707;SDS011;48769;51.624;5.886;2023-04-03T03:08:35;8.83;;;4.07;;
62707;SDS011;48769;51.624;5.886;2023-04-03T03:11:02;9.90;;;4.38;;
62707;SDS011;48769;51.624;5.886;2023-04-03T03:13:27;5.65;;;3.97;;
62707;SDS011;48769;51.624;5.886;2023-04-03T03:15:53;9.10;;;5.32;;
62707;SDS011;48769;51.624;5.886;2023-04-03T03:18:19;9.15;;;4.07;;
62707;SDS011;48769;51.624;5.886;2023-04-03T03:20:44;9.15;;;3.78;;
62707;SDS011;48769;51.624;5.886;2023-04-03T03:23:10;5.80;;;3.85;;
62707;SDS011;48769;51.624;5.886;2023-04-03T03:25:41;10.52;;;4.78;;
62707;SDS011;48769;51.624;5.886;2023-04-03T03:28:07;9.63;;;4.07;;
62707;SDS011;48769;51.624;5.886;2023-04-03T03:30:32;8.55;;;4.53;;
62707;SDS011;48769;51.624;5.886;2023-04-03T03:32:58;8.70;;;4.03;;
62707;SDS011;48769;51.624;5.886;2023-04-03T03:35:23;8.85;;;4.35;;
62707;SDS011;48769;51.624;5.886;2023-04-03T03:37:48;8.48;;;3.90;;
62707;SDS011;48769;51.624;5.886;2023-04-03T03:40:14;10.25;;;4.13;;
62707;SDS011;48769;51.624;5.886;2023-04-03T03:42:40;10.25;;;4.57;;
62707;SDS011;48769;51.624;5.886;2023-04-03T03:45:06;5.65;;;3.92;;
62707;SDS011;48769;51.624;5.886;2023-04-03T03:47:32;10.35;;;3.67;;
62707;SDS011;48769;51.624;5.886;2023-04-03T03:50:00;8.07;;;4.22;;
62707;SDS011;48769;51.624;5.886;2023-04-03T03:52:26;6.93;;;3.85;;
62707;SDS011;48769;51.624;5.886;2023-04-03T03:54:54;9.20;;;3.70;;
62707;SDS011;48769;51.624;5.886;2023-04-03T03:57:20;6.82;;;4.15;;
62707;SDS011;48769;51.624;5.886;2023-04-03T03:59:45;8.77;;;4.13;;
62707;SDS011;48769;51.624;5.886;2023-04-03T04:02:12;12.75;;;6.53;;
62707;SDS011;48769;51.624;5.886;2023-04-03T04:04:37;9.18;;;3.90;;
62707;SDS011;48769;51.624;5.886;2023-04-03T04:07:03;8.45;;;4.07;;
62707;SDS011;48769;51.624;5.886;2023-04-03T04:09:28;7.38;;;3.75;;
62707;SDS011;48769;51.624;5.886;2023-04-03T04:11:54;15.50;;;4.50;;
62707;SDS011;48769;51.624;5.886;2023-04-03T04:14:19;11.10;;;3.80;;
62707;SDS011;48769;51.624;5.886;2023-04-03T04:16:47;7.05;;;3.63;;
62707;SDS011;48769;51.624;5.886;2023-04-03T04:19:13;7.18;;;3.53;;
62707;SDS011;48769;51.624;5.886;2023-04-03T04:21:39;6.68;;;3.20;;
62707;SDS011;48769;51.624;5.886;2023-04-03T04:24:06;6.35;;;3.20;;
62707;SDS011;48769;51.624;5.886;2023-04-03T04:26:32;9.32;;;3.40;;
62707;SDS011;48769;51.624;5.886;2023-04-03T04:28:57;5.45;;;3.50;;
62707;SDS011;48769;51.624;5.886;2023-04-03T04:31:23;6.95;;;3.20;;
62707;SDS011;48769;51.624;5.886;2023-04-03T04:33:48;5.35;;;3.50;;
62707;SDS011;48769;51.624;5.886;2023-04-03T04:36:13;7.50;;;3.17;;
62707;SDS011;48769;51.624;5.886;2023-04-03T04:38:40;6.68;;;3.08;;
62707;SDS011;48769;51.624;5.886;2023-04-03T04:41:05;6.70;;;3.67;;
62707;SDS011;48769;51.624;5.886;2023-04-03T04:43:31;6.43;;;3.30;;
62707;SDS011;48769;51.624;5.886;2023-04-03T04:46:00;11.63;;;3.67;;
62707;SDS011;48769;51.624;5.886;2023-04-03T04:50:54;9.10;;;3.55;;
62707;SDS011;48769;51.624;5.886;2023-04-03T04:53:20;9.05;;;3.00;;
62707;SDS011;48769;51.624;5.886;2023-04-03T04:55:47;6.88;;;3.47;;
62707;SDS011;48769;51.624;5.886;2023-04-03T04:58:13;6.70;;;3.15;;
62707;SDS011;48769;51.624;5.886;2023-04-03T05:00:38;8.35;;;4.15;;
62707;SDS011;48769;51.624;5.886;2023-04-03T05:03:04;7.30;;;3.33;;
62707;SDS011;48769;51.624;5.886;2023-04-03T05:05:29;5.40;;;3.17;;
62707;SDS011;48769;51.624;5.886;2023-04-03T05:07:55;8.80;;;3.25;;
62707;SDS011;48769;51.624;5.886;2023-04-03T05:10:20;6.28;;;3.75;;
62707;SDS011;48769;51.624;5.886;2023-04-03T05:12:46;13.82;;;3.72;;
62707;SDS011;48769;51.624;5.886;2023-04-03T05:15:11;9.07;;;3.78;;
62707;SDS011;48769;51.624;5.886;2023-04-03T05:17:36;6.88;;;3.38;;
62707;SDS011;48769;51.624;5.886;2023-04-03T05:20:03;10.73;;;4.13;;
62707;SDS011;48769;51.624;5.886;2023-04-03T05:22:31;18.50;;;8.10;;
62707;SDS011;48769;51.624;5.886;2023-04-03T05:24:57;22.85;;;10.85;;
62707;SDS011;48769;51.624;5.886;2023-04-03T05:27:22;23.73;;;9.68;;
62707;SDS011;48769;51.624;5.886;2023-04-03T05:29:49;19.55;;;9.55;;
62707;SDS011;48769;51.624;5.886;2023-04-03T05:32:17;17.00;;;8.15;;
62707;SDS011;48769;51.624;5.886;2023-04-03T05:34:43;8.48;;;3.72;;
62707;SDS011;48769;51.624;5.886;2023-04-03T05:37:11;9.70;;;4.90;;
62707;SDS011;48769;51.624;5.886;2023-04-03T05:39:37;7.90;;;3.67;;
62707;SDS011;48769;51.624;5.886;2023-04-03T05:42:05;8.93;;;3.60;;
62707;SDS011;48769;51.624;5.886;2023-04-03T05:44:31;7.60;;;3.10;;
62707;SDS011;48769;51.624;5.886;2023-04-03T05:46:57;7.45;;;3.20;;
62707;SDS011;48769;51.624;5.886;2023-04-03T05:49:22;6.82;;;2.90;;
62707;SDS011;48769;51.624;5.886;2023-04-03T05:51:47;5.95;;;2.80;;
62707;SDS011;48769;51.624;5.886;2023-04-03T05:54:17;5.95;;;2.80;;
62707;SDS011;48769;51.624;5.886;2023-04-03T05:59:11;7.43;;;3.28;;
62707;SDS011;48769;51.624;5.886;2023-04-03T06:01:36;8.90;;;3.50;;
62707;SDS011;48769;51.624;5.886;2023-04-03T06:04:05;7.40;;;2.70;;
62707;SDS011;48769;51.624;5.886;2023-04-03T06:06:52;11.02;;;3.92;;
62707;SDS011;48769;51.624;5.886;2023-04-03T06:09:20;8.02;;;2.92;;
62707;SDS011;48769;51.624;5.886;2023-04-03T06:11:47;7.15;;;2.95;;
62707;SDS011;48769;51.624;5.886;2023-04-03T06:14:12;6.78;;;2.78;;
62707;SDS011;48769;51.624;5.886;2023-04-03T06:16:38;12.00;;;3.83;;
62707;SDS011;48769;51.624;5.886;2023-04-03T06:19:04;7.05;;;2.70;;
62707;SDS011;48769;51.624;5.886;2023-04-03T06:21:30;9.80;;;3.40;;
62707;SDS011;48769;51.624;5.886;2023-04-03T06:23:56;8.57;;;3.13;;
62707;SDS011;48769;51.624;5.886;2023-04-03T06:26:21;8.00;;;2.78;;
62707;SDS011;48769;51.624;5.886;2023-04-03T06:28:47;6.65;;;2.78;;
62707;SDS011;48769;51.624;5.886;2023-04-03T06:31:13;9.02;;;3.30;;
62707;SDS011;48769;51.624;5.886;2023-04-03T06:33:38;8.23;;;2.88;;
62707;SDS011;48769;51.624;5.886;2023-04-03T06:36:04;9.63;;;2.88;;
62707;SDS011;48769;51.624;5.886;2023-04-03T06:38:31;7.68;;;2.65;;
62707;SDS011;48769;51.624;5.886;2023-04-03T06:40:58;6.05;;;3.10;;
62707;SDS011;48769;51.624;5.886;2023-04-03T06:43:23;9.50;;;3.08;;
62707;SDS011;48769;51.624;5.886;2023-04-03T06:45:49;10.52;;;3.85;;
62707;SDS011;48769;51.624;5.886;2023-04-03T06:48:14;8.23;;;3.05;;
62707;SDS011;48769;51.624;5.886;2023-04-03T06:50:40;11.25;;;3.47;;
62707;SDS011;48769;51.624;5.886;2023-04-03T06:53:05;8.20;;;3.22;;
62707;SDS011;48769;51.624;5.886;2023-04-03T06:55:32;8.85;;;3.05;;
62707;SDS011;48769;51.624;5.886;2023-04-03T06:57:57;7.85;;;2.90;;
62707;SDS011;48769;51.624;5.886;2023-04-03T07:00:23;7.80;;;3.10;;
62707;SDS011;48769;51.624;5.886;2023-04-03T07:02:48;10.65;;;3.33;;
62707;SDS011;48769;51.624;5.886;2023-04-03T07:05:13;7.07;;;2.78;;
62707;SDS011;48769;51.624;5.886;2023-04-03T07:07:39;7.57;;;2.75;;
62707;SDS011;48769;51.624;5.886;2023-04-03T07:10:05;13.13;;;2.97;;
62707;SDS011;48769;51.624;5.886;2023-04-03T07:12:31;8.13;;;2.85;;
62707;SDS011;48769;51.624;5.886;2023-04-03T07:14:57;11.45;;;3.08;;
62707;SDS011;48769;51.624;5.886;2023-04-03T07:17:23;9.07;;;2.92;;
62707;SDS011;48769;51.624;5.886;2023-04-03T07:19:48;9.52;;;3.72;;
62707;SDS011;48769;51.624;5.886;2023-04-03T07:22:13;11.63;;;2.80;;
62707;SDS011;48769;51.624;5.886;2023-04-03T07:24:39;8.38;;;3.22;;
62707;SDS011;48769;51.624;5.886;2023-04-03T07:27:04;7.97;;;2.63;;
62707;SDS011;48769;51.624;5.886;2023-04-03T07:29:30;8.60;;;3.22;;
62707;SDS011;48769;51.624;5.886;2023-04-03T07:31:55;8.73;;;3.13;;
62707;SDS011;48769;51.624;5.886;2023-04-03T07:34:24;6.10;;;2.65;;
62707;SDS011;48769;51.624;5.886;2023-04-03T07:36:49;6.30;;;2.65;;
62707;SDS011;48769;51.624;5.886;2023-04-03T07:39:15;6.25;;;2.50;;
62707;SDS011;48769;51.624;5.886;2023-04-03T07:41:40;9.57;;;2.80;;
62707;SDS011;48769;51.624;5.886;2023-04-03T07:44:05;7.53;;;2.88;;
62707;SDS011;48769;51.624;5.886;2023-04-03T07:46:31;7.80;;;3.45;;
62707;SDS011;48769;51.624;5.886;2023-04-03T07:48:57;7.57;;;2.47;;
62707;SDS011;48769;51.624;5.886;2023-04-03T07:51:22;7.53;;;2.67;;
62707;SDS011;48769;51.624;5.886;2023-04-03T07:53:49;4.28;;;2.38;;
62707;SDS011;48769;51.624;5.886;2023-04-03T07:56:14;7.10;;;2.30;;
62707;SDS011;48769;51.624;5.886;2023-04-03T07:58:41;10.57;;;2.28;;
62707;SDS011;48769;51.624;5.886;2023-04-03T08:01:06;5.82;;;2.50;;
62707;SDS011;48769;51.624;5.886;2023-04-03T08:03:32;6.07;;;2.63;;
62707;SDS011;48769;51.624;5.886;2023-04-03T08:06:01;7.75;;;2.72;;
62707;SDS011;48769;51.624;5.886;2023-04-03T08:08:29;5.85;;;2.28;;
62707;SDS011;48769;51.624;5.886;2023-04-03T08:10:55;7.00;;;2.85;;
62707;SDS011;48769;51.624;5.886;2023-04-03T08:13:22;7.03;;;2.80;;
62707;SDS011;48769;51.624;5.886;2023-04-03T08:15:47;6.68;;;2.30;;
62707;SDS011;48769;51.624;5.886;2023-04-03T08:18:13;6.88;;;2.28;;
62707;SDS011;48769;51.624;5.886;2023-04-03T08:20:40;5.82;;;2.20;;
62707;SDS011;48769;51.624;5.886;2023-04-03T08:23:06;6.05;;;2.20;;
62707;SDS011;48769;51.624;5.886;2023-04-03T08:25:33;6.45;;;2.40;;
62707;SDS011;48769;51.624;5.886;2023-04-03T08:28:02;5.82;;;2.08;;
62707;SDS011;48769;51.624;5.886;2023-04-03T08:30:27;4.95;;;2.22;;
62707;SDS011;48769;51.624;5.886;2023-04-03T08:32:53;4.10;;;1.63;;
62707;SDS011;48769;51.624;5.886;2023-04-03T08:35:18;6.07;;;2.15;;
62707;SDS011;48769;51.624;5.886;2023-04-03T08:37:45;4.72;;;2.10;;
62707;SDS011;48769;51.624;5.886;2023-04-03T08:40:13;4.78;;;1.88;;
62707;SDS011;48769;51.624;5.886;2023-04-03T08:42:49;6.88;;;2.75;;
62707;SDS011;48769;51.624;5.886;2023-04-03T08:45:26;5.82;;;1.90;;
62707;SDS011;48769;51.624;5.886;2023-04-03T08:50:32;5.20;;;1.70;;
62707;SDS011;48769;51.624;5.886;2023-04-03T08:53:03;6.05;;;2.17;;
62707;SDS011;48769;51.624;5.886;2023-04-03T08:55:33;5.60;;;1.92;;
62707;SDS011;48769;51.624;5.886;2023-04-03T09:00:51;3.42;;;1.70;;
62707;SDS011;48769;51.624;5.886;2023-04-03T09:03:22;4.57;;;1.75;;
62707;SDS011;48769;51.624;5.886;2023-04-03T09:05:49;2.97;;;1.35;;
62707;SDS011;48769;51.624;5.886;2023-04-03T09:08:30;7.28;;;1.65;;
62707;SDS011;48769;51.624;5.886;2023-04-03T09:11:12;4.22;;;1.92;;
62707;SDS011;48769;51.624;5.886;2023-04-03T09:22:23;5.57;;;1.42;;
62707;SDS011;48769;51.624;5.886;2023-04-03T09:27:42;4.28;;;1.52;;
62707;SDS011;48769;51.624;5.886;2023-04-03T09:30:12;5.47;;;1.30;;
62707;SDS011;48769;51.624;5.886;2023-04-03T09:32:44;2.78;;;1.10;;
62707;SDS011;48769;51.624;5.886;2023-04-03T09:37:49;3.15;;;1.20;;
62707;SDS011;48769;51.624;5.886;2023-04-03T09:40:31;3.05;;;1.00;;
62707;SDS011;48769;51.624;5.886;2023-04-03T09:43:01;3.00;;;0.88;;
62707;SDS011;48769;51.624;5.886;2023-04-03T09:45:44;3.83;;;1.00;;
62707;SDS011;48769;51.624;5.886;2023-04-03T09:48:15;2.63;;;1.10;;
62707;SDS011;48769;51.624;5.886;2023-04-03T09:50:56;2.28;;;1.02;;
62707;SDS011;48769;51.624;5.886;2023-04-03T09:53:34;1.35;;;0.85;;
62707;SDS011;48769;51.624;5.886;2023-04-03T09:56:01;1.88;;;0.80;;
62707;SDS011;48769;51.624;5.886;2023-04-03T09:58:33;3.25;;;0.80;;
62707;SDS011;48769;51.624;5.886;2023-04-03T10:01:09;4.55;;;1.10;;
62707;SDS011;48769;51.624;5.886;2023-04-03T10:04:03;2.97;;;0.90;;
62707;SDS011;48769;51.624;5.886;2023-04-03T10:06:29;4.68;;;0.85;;
62707;SDS011;48769;51.624;5.886;2023-04-03T10:09:01;2.38;;;1.00;;
62707;SDS011;48769;51.624;5.886;2023-04-03T10:11:31;2.40;;;1.00;;
62707;SDS011;48769;51.624;5.886;2023-04-03T10:14:01;3.10;;;1.00;;
62707;SDS011;48769;51.624;5.886;2023-04-03T10:21:48;1.63;;;0.82;;
62707;SDS011;48769;51.624;5.886;2023-04-03T10:24:25;4.93;;;0.80;;
62707;SDS011;48769;51.624;5.886;2023-04-03T10:26:55;3.97;;;1.00;;
62707;SDS011;48769;51.624;5.886;2023-04-03T10:29:40;4.00;;;1.00;;
62707;SDS011;48769;51.624;5.886;2023-04-03T10:32:22;2.00;;;1.02;;
62707;SDS011;48769;51.624;5.886;2023-04-03T10:35:08;3.45;;;0.93;;
62707;SDS011;48769;51.624;5.886;2023-04-03T10:43:09;4.60;;;1.25;;
62707;SDS011;48769;51.624;5.886;2023-04-03T10:54:05;2.17;;;0.90;;
62707;SDS011;48769;51.624;5.886;2023-04-03T10:56:44;1.67;;;0.80;;
62707;SDS011;48769;51.624;5.886;2023-04-03T10:59:16;1.52;;;0.60;;
62707;SDS011;48769;51.624;5.886;2023-04-03T11:01:49;3.92;;;1.00;;
62707;SDS011;48769;51.624;5.886;2023-04-03T11:04:19;3.13;;;1.10;;
62707;SDS011;48769;51.624;5.886;2023-04-03T11:06:50;2.25;;;0.82;;
62707;SDS011;48769;51.624;5.886;2023-04-03T11:12:00;4.40;;;0.80;;
62707;SDS011;48769;51.624;5.886;2023-04-03T11:14:37;2.25;;;0.77;;
62707;SDS011;48769;51.624;5.886;2023-04-03T11:22:32;3.17;;;0.90;;
62707;SDS011;48769;51.624;5.886;2023-04-03T11:27:38;2.97;;;1.13;;
62707;SDS011;48769;51.624;5.886;2023-04-03T11:30:11;2.38;;;1.10;;
62707;SDS011;48769;51.624;5.886;2023-04-03T11:33:05;2.20;;;1.05;;
62707;SDS011;48769;51.624;5.886;2023-04-03T11:35:45;2.88;;;0.93;;
62707;SDS011;48769;51.624;5.886;2023-04-03T11:38:23;2.10;;;1.13;;
62707;SDS011;48769;51.624;5.886;2023-04-03T11:40:53;1.42;;;0.88;;
62707;SDS011;48769;51.624;5.886;2023-04-03T11:43:24;5.47;;;1.95;;
62707;SDS011;48769;51.624;5.886;2023-04-03T11:45:55;3.80;;;1.25;;
62707;SDS011;48769;51.624;5.886;2023-04-03T11:50:53;4.07;;;0.98;;
62707;SDS011;48769;51.624;5.886;2023-04-03T11:53:25;3.03;;;1.48;;
62707;SDS011;48769;51.624;5.886;2023-04-03T11:59:15;3.65;;;1.17;;
62707;SDS011;48769;51.624;5.886;2023-04-03T12:01:50;4.18;;;1.13;;
62707;SDS011;48769;51.624;5.886;2023-04-03T12:04:19;4.63;;;1.40;;
62707;SDS011;48769;51.624;5.886;2023-04-03T12:12:01;2.75;;;0.98;;
62707;SDS011;48769;51.624;5.886;2023-04-03T12:14:46;8.88;;;1.98;;
62707;SDS011;48769;51.624;5.886;2023-04-03T12:17:16;2.42;;;1.08;;
62707;SDS011;48769;51.624;5.886;2023-04-03T12:19:47;4.15;;;1.48;;
62707;SDS011;48769;51.624;5.886;2023-04-03T12:22:13;5.70;;;1.42;;
62707;SDS011;48769;51.624;5.886;2023-04-03T12:24:42;2.88;;;1.35;;
62707;SDS011;48769;51.624;5.886;2023-04-03T12:27:17;5.13;;;1.60;;
62707;SDS011;48769;51.624;5.886;2023-04-03T12:32:25;4.95;;;1.50;;
62707;SDS011;48769;51.624;5.886;2023-04-03T12:48:54;2.90;;;1.40;;
62707;SDS011;48769;51.624;5.886;2023-04-03T12:51:27;1.70;;;1.10;;
62707;SDS011;48769;51.624;5.886;2023-04-03T12:54:41;3.83;;;1.58;;
62707;SDS011;48769;51.624;5.886;2023-04-03T12:56:50;3.35;;;1.60;;
62707;SDS011;48769;51.624;5.886;2023-04-03T12:59:18;2.78;;;1.25;;
62707;SDS011;48769;51.624;5.886;2023-04-03T13:01:55;4.88;;;1.55;;
62707;SDS011;48769;51.624;5.886;2023-04-03T13:04:22;3.42;;;1.40;;
62707;SDS011;48769;51.624;5.886;2023-04-03T13:06:47;7.63;;;2.05;;
62707;SDS011;48769;51.624;5.886;2023-04-03T13:09:23;3.72;;;1.67;;
62707;SDS011;48769;51.624;5.886;2023-04-03T13:11:56;4.07;;;1.48;;
62707;SDS011;48769;51.624;5.886;2023-04-03T13:14:26;3.33;;;1.40;;
62707;SDS011;48769;51.624;5.886;2023-04-03T13:19:20;4.03;;;1.63;;
62707;SDS011;48769;51.624;5.886;2023-04-03T13:21:48;2.47;;;1.63;;
62707;SDS011;48769;51.624;5.886;2023-04-03T13:24:16;3.97;;;1.70;;
62707;SDS011;48769;51.624;5.886;2023-04-03T13:26:45;2.50;;;1.40;;
62707;SDS011;48769;51.624;5.886;2023-04-03T13:29:21;4.30;;;1.60;;
62707;SDS011;48769;51.624;5.886;2023-04-03T13:31:54;3.33;;;1.85;;
62707;SDS011;48769;51.624;5.886;2023-04-03T13:34:21;4.07;;;1.88;;
62707;SDS011;48769;51.624;5.886;2023-04-03T13:36:56;3.67;;;1.20;;
62707;SDS011;48769;51.624;5.886;2023-04-03T13:39:29;5.00;;;1.80;;
62707;SDS011;48769;51.624;5.886;2023-04-03T13:41:57;3.97;;;1.50;;
62707;SDS011;48769;51.624;5.886;2023-04-03T13:44:46;3.70;;;1.60;;
62707;SDS011;48769;51.624;5.886;2023-04-03T13:47:20;3.40;;;1.60;;
62707;SDS011;48769;51.624;5.886;2023-04-03T13:50:02;2.03;;;1.30;;
62707;SDS011;48769;51.624;5.886;2023-04-03T13:52:42;4.38;;;1.50;;
62707;SDS011;48769;51.624;5.886;2023-04-03T13:55:21;3.45;;;1.60;;
62707;SDS011;48769;51.624;5.886;2023-04-03T13:57:57;3.72;;;1.33;;
62707;SDS011;48769;51.624;5.886;2023-04-03T14:00:28;5.35;;;1.88;;
62707;SDS011;48769;51.624;5.886;2023-04-03T14:02:56;4.28;;;1.60;;
62707;SDS011;48769;51.624;5.886;2023-04-03T14:05:22;3.17;;;1.38;;
62707;SDS011;48769;51.624;5.886;2023-04-03T14:07:50;5.35;;;1.50;;
62707;SDS011;48769;51.624;5.886;2023-04-03T14:10:16;2.97;;;1.67;;
62707;SDS011;48769;51.624;5.886;2023-04-03T14:12:42;7.18;;;1.70;;
62707;SDS011;48769;51.624;5.886;2023-04-03T14:15:15;3.08;;;1.58;;
62707;SDS011;48769;51.624;5.886;2023-04-03T14:17:41;9.07;;;1.83;;
62707;SDS011;48769;51.624;5.886;2023-04-03T14:20:10;6.95;;;1.88;;
62707;SDS011;48769;51.624;5.886;2023-04-03T14:22:39;4.28;;;1.40;;
62707;SDS011;48769;51.624;5.886;2023-04-03T14:25:05;3.53;;;1.52;;
62707;SDS011;48769;51.624;5.886;2023-04-03T14:27:35;2.63;;;1.15;;
62707;SDS011;48769;51.624;5.886;2023-04-03T14:30:06;2.47;;;1.33;;
62707;SDS011;48769;51.624;5.886;2023-04-03T14:32:34;5.50;;;2.00;;
62707;SDS011;48769;51.624;5.886;2023-04-03T14:34:59;4.13;;;1.52;;
62707;SDS011;48769;51.624;5.886;2023-04-03T14:37:26;3.42;;;1.52;;
62707;SDS011;48769;51.624;5.886;2023-04-03T14:39:56;5.60;;;1.70;;
62707;SDS011;48769;51.624;5.886;2023-04-03T14:42:24;4.82;;;1.90;;
62707;SDS011;48769;51.624;5.886;2023-04-03T14:44:53;4.65;;;1.70;;
62707;SDS011;48769;51.624;5.886;2023-04-03T14:47:19;3.13;;;1.45;;
62707;SDS011;48769;51.624;5.886;2023-04-03T14:49:47;6.15;;;1.73;;
62707;SDS011;48769;51.624;5.886;2023-04-03T14:52:21;2.47;;;1.65;;
62707;SDS011;48769;51.624;5.886;2023-04-03T14:55:05;6.70;;;2.20;;
62707;SDS011;48769;51.624;5.886;2023-04-03T14:57:31;4.18;;;1.80;;
62707;SDS011;48769;51.624;5.886;2023-04-03T14:59:58;4.35;;;1.88;;
62707;SDS011;48769;51.624;5.886;2023-04-03T15:02:25;4.35;;;2.88;;
62707;SDS011;48769;51.624;5.886;2023-04-03T15:04:58;5.50;;;2.08;;
62707;SDS011;48769;51.624;5.886;2023-04-03T15:07:26;4.72;;;1.73;;
62707;SDS011;48769;51.624;5.886;2023-04-03T15:09:54;5.65;;;1.80;;
62707;SDS011;48769;51.624;5.886;2023-04-03T15:12:21;4.43;;;1.63;;
62707;SDS011;48769;51.624;5.886;2023-04-03T15:14:47;4.82;;;1.77;;
62707;SDS011;48769;51.624;5.886;2023-04-03T15:17:15;3.28;;;1.95;;
62707;SDS011;48769;51.624;5.886;2023-04-03T15:19:43;4.47;;;1.80;;
62707;SDS011;48769;51.624;5.886;2023-04-03T15:22:13;3.08;;;1.77;;
62707;SDS011;48769;51.624;5.886;2023-04-03T15:24:39;6.10;;;2.00;;
62707;SDS011;48769;51.624;5.886;2023-04-03T15:27:05;5.47;;;1.70;;
62707;SDS011;48769;51.624;5.886;2023-04-03T15:29:30;5.70;;;1.70;;
62707;SDS011;48769;51.624;5.886;2023-04-03T15:31:55;4.65;;;1.73;;
62707;SDS011;48769;51.624;5.886;2023-04-03T15:34:21;4.90;;;1.63;;
62707;SDS011;48769;51.624;5.886;2023-04-03T15:36:46;5.68;;;1.90;;
62707;SDS011;48769;51.624;5.886;2023-04-03T15:39:12;5.00;;;1.63;;
62707;SDS011;48769;51.624;5.886;2023-04-03T15:41:37;7.82;;;1.52;;
62707;SDS011;48769;51.624;5.886;2023-04-03T15:44:02;5.18;;;1.90;;
62707;SDS011;48769;51.624;5.886;2023-04-03T15:46:27;5.93;;;2.00;;
62707;SDS011;48769;51.624;5.886;2023-04-03T15:48:53;5.00;;;1.80;;
62707;SDS011;48769;51.624;5.886;2023-04-03T15:51:18;4.53;;;1.42;;
62707;SDS011;48769;51.624;5.886;2023-04-03T15:53:43;6.10;;;2.08;;
62707;SDS011;48769;51.624;5.886;2023-04-03T15:56:09;3.13;;;1.52;;
62707;SDS011;48769;51.624;5.886;2023-04-03T15:58:34;6.35;;;1.70;;
62707;SDS011;48769;51.624;5.886;2023-04-03T16:01:00;3.70;;;1.65;;
62707;SDS011;48769;51.624;5.886;2023-04-03T16:03:25;7.72;;;2.33;;
62707;SDS011;48769;51.624;5.886;2023-04-03T16:05:51;3.28;;;1.40;;
62707;SDS011;48769;51.624;5.886;2023-04-03T16:08:17;4.45;;;2.00;;
62707;SDS011;48769;51.624;5.886;2023-04-03T16:10:43;5.43;;;1.50;;
62707;SDS011;48769;51.624;5.886;2023-04-03T16:13:10;6.32;;;2.08;;
62707;SDS011;48769;51.624;5.886;2023-04-03T16:15:36;4.72;;;2.25;;
62707;SDS011;48769;51.624;5.886;2023-04-03T16:18:02;3.42;;;1.60;;
62707;SDS011;48769;51.624;5.886;2023-04-03T16:20:28;3.45;;;1.80;;
62707;SDS011;48769;51.624;5.886;2023-04-03T16:22:55;3.78;;;1.60;;
62707;SDS011;48769;51.624;5.886;2023-04-03T16:25:24;4.75;;;2.10;;
62707;SDS011;48769;51.624;5.886;2023-04-03T16:27:49;3.47;;;1.50;;